sensor_id;sensor_type;location;lat;lon;timestamp;pressure;altitude;pressure_sealevel;temperature
70415;BMP280;57837;52.064;113.478;2023-07-20T00:02:22;93707.69;;;34.04
70415;BMP280;57837;52.064;113.478;2023-07-20T00:05:26;93713.22;;;33.54
70415;BMP280;57837;52.064;113.478;2023-07-20T00:08:29;93724.31;;;33.73
70415;BMP280;57837;52.064;113.478;2023-07-20T00:11:36;93720.09;;;34.38
70415;BMP280;57837;52.064;113.478;2023-07-20T00:14:39;93714.69;;;34.52
70415;BMP280;57837;52.064;113.478;2023-07-20T00:17:43;93709.63;;;35.18
70415;BMP280;57837;52.064;113.478;2023-07-20T00:20:48;93710.59;;;35.56
70415;BMP280;57837;52.064;113.478;2023-07-20T00:23:51;93716.25;;;36.11
70415;BMP280;57837;52.064;113.478;2023-07-20T00:26:54;93724.47;;;34.74
70415;BMP280;57837;52.064;113.478;2023-07-20T00:29:58;93730.13;;;34.38
70415;BMP280;57837;52.064;113.478;2023-07-20T00:33:01;93726.06;;;35.24
70415;BMP280;57837;52.064;113.478;2023-07-20T00:36:05;93711.91;;;35.08
70415;BMP280;57837;52.064;113.478;2023-07-20T00:39:08;93715.63;;;34.16
70415;BMP280;57837;52.064;113.478;2023-07-20T00:42:12;93715.97;;;34.51
70415;BMP280;57837;52.064;113.478;2023-07-20T00:45:16;93719.31;;;34.08
70415;BMP280;57837;52.064;113.478;2023-07-20T00:48:20;93714.72;;;33.70
70415;BMP280;57837;52.064;113.478;2023-07-20T00:51:25;93706.63;;;34.52
70415;BMP280;57837;52.064;113.478;2023-07-20T00:54:30;93698.66;;;34.54
70415;BMP280;57837;52.064;113.478;2023-07-20T00:57:34;93701.66;;;35.20
70415;BMP280;57837;52.064;113.478;2023-07-20T01:00:38;93704.03;;;36.78
70415;BMP280;57837;52.064;113.478;2023-07-20T01:03:41;93700.09;;;36.28
70415;BMP280;57837;52.064;113.478;2023-07-20T01:13:02;93694.69;;;35.15
70415;BMP280;57837;52.064;113.478;2023-07-20T01:16:06;93688.44;;;35.42
70415;BMP280;57837;52.064;113.478;2023-07-20T01:19:13;93692.44;;;35.25
70415;BMP280;57837;52.064;113.478;2023-07-20T01:32:24;93679.13;;;34.40
70415;BMP280;57837;52.064;113.478;2023-07-20T01:35:30;93677.75;;;35.93
70415;BMP280;57837;52.064;113.478;2023-07-20T01:38:36;93683.38;;;37.04
70415;BMP280;57837;52.064;113.478;2023-07-20T01:41:40;93678.34;;;37.34
70415;BMP280;57837;52.064;113.478;2023-07-20T01:44:44;93679.34;;;37.43
70415;BMP280;57837;52.064;113.478;2023-07-20T01:47:48;93681.91;;;36.11
70415;BMP280;57837;52.064;113.478;2023-07-20T01:50:52;93674.97;;;35.26
70415;BMP280;57837;52.064;113.478;2023-07-20T01:53:55;93678.97;;;35.10
70415;BMP280;57837;52.064;113.478;2023-07-20T01:57:00;93670.63;;;34.74
70415;BMP280;57837;52.064;113.478;2023-07-20T02:00:04;93666.91;;;34.66
70415;BMP280;57837;52.064;113.478;2023-07-20T02:03:15;93665.50;;;35.41
70415;BMP280;57837;52.064;113.478;2023-07-20T02:06:18;93661.75;;;34.86
70415;BMP280;57837;52.064;113.478;2023-07-20T02:09:23;93661.44;;;34.21
70415;BMP280;57837;52.064;113.478;2023-07-20T02:12:27;93670.00;;;34.60
70415;BMP280;57837;52.064;113.478;2023-07-20T02:15:31;93663.78;;;34.42
70415;BMP280;57837;52.064;113.478;2023-07-20T02:18:35;93659.31;;;34.33
70415;BMP280;57837;52.064;113.478;2023-07-20T02:21:42;93659.75;;;35.02
70415;BMP280;57837;52.064;113.478;2023-07-20T02:24:46;93654.31;;;36.13
70415;BMP280;57837;52.064;113.478;2023-07-20T02:27:50;93662.34;;;36.46
70415;BMP280;57837;52.064;113.478;2023-07-20T02:30:55;93661.09;;;36.31
70415;BMP280;57837;52.064;113.478;2023-07-20T02:33:59;93647.63;;;35.98
70415;BMP280;57837;52.064;113.478;2023-07-20T02:37:03;93637.06;;;35.53
70415;BMP280;57837;52.064;113.478;2023-07-20T02:40:08;93652.03;;;35.57
70415;BMP280;57837;52.064;113.478;2023-07-20T02:43:12;93647.91;;;35.55
70415;BMP280;57837;52.064;113.478;2023-07-20T02:46:16;93641.09;;;35.37
70415;BMP280;57837;52.064;113.478;2023-07-20T02:49:20;93642.94;;;34.56
70415;BMP280;57837;52.064;113.478;2023-07-20T02:52:24;93635.72;;;33.75
70415;BMP280;57837;52.064;113.478;2023-07-20T02:55:28;93637.44;;;33.03
70415;BMP280;57837;52.064;113.478;2023-07-20T02:58:34;93636.00;;;33.41
70415;BMP280;57837;52.064;113.478;2023-07-20T03:01:41;93627.69;;;34.18
70415;BMP280;57837;52.064;113.478;2023-07-20T03:04:45;93631.13;;;34.63
70415;BMP280;57837;52.064;113.478;2023-07-20T03:07:49;93624.09;;;34.14
70415;BMP280;57837;52.064;113.478;2023-07-20T03:10:54;93622.66;;;33.97
70415;BMP280;57837;52.064;113.478;2023-07-20T03:13:58;93631.56;;;34.15
70415;BMP280;57837;52.064;113.478;2023-07-20T03:17:02;93621.91;;;34.10
70415;BMP280;57837;52.064;113.478;2023-07-20T03:20:09;93620.78;;;33.72
70415;BMP280;57837;52.064;113.478;2023-07-20T03:23:15;93619.78;;;33.52
70415;BMP280;57837;52.064;113.478;2023-07-20T03:26:19;93616.38;;;33.92
70415;BMP280;57837;52.064;113.478;2023-07-20T03:29:24;93612.13;;;33.60
70415;BMP280;57837;52.064;113.478;2023-07-20T03:32:28;93613.38;;;32.29
70415;BMP280;57837;52.064;113.478;2023-07-20T03:35:32;93617.91;;;31.78
70415;BMP280;57837;52.064;113.478;2023-07-20T03:38:36;93609.78;;;31.53
70415;BMP280;57837;52.064;113.478;2023-07-20T03:41:40;93616.53;;;31.43
70415;BMP280;57837;52.064;113.478;2023-07-20T03:44:43;93603.59;;;31.39
70415;BMP280;57837;52.064;113.478;2023-07-20T03:47:47;93608.59;;;31.21
70415;BMP280;57837;52.064;113.478;2023-07-20T03:50:52;93605.81;;;30.87
70415;BMP280;57837;52.064;113.478;2023-07-20T03:53:58;93603.63;;;30.29
70415;BMP280;57837;52.064;113.478;2023-07-20T03:57:03;93595.44;;;30.16
70415;BMP280;57837;52.064;113.478;2023-07-20T04:00:07;93592.75;;;30.37
70415;BMP280;57837;52.064;113.478;2023-07-20T04:03:15;93588.31;;;29.87
70415;BMP280;57837;52.064;113.478;2023-07-20T04:06:19;93573.13;;;29.59
70415;BMP280;57837;52.064;113.478;2023-07-20T04:09:23;93577.31;;;29.62
70415;BMP280;57837;52.064;113.478;2023-07-20T04:12:28;93570.03;;;29.63
70415;BMP280;57837;52.064;113.478;2023-07-20T04:15:31;93556.38;;;29.68
70415;BMP280;57837;52.064;113.478;2023-07-20T04:18:35;93551.91;;;29.82
70415;BMP280;57837;52.064;113.478;2023-07-20T04:21:41;93560.63;;;29.83
70415;BMP280;57837;52.064;113.478;2023-07-20T04:24:45;93553.44;;;29.64
70415;BMP280;57837;52.064;113.478;2023-07-20T04:27:50;93543.91;;;29.61
70415;BMP280;57837;52.064;113.478;2023-07-20T04:30:55;93550.13;;;29.44
70415;BMP280;57837;52.064;113.478;2023-07-20T04:33:58;93547.44;;;29.23
70415;BMP280;57837;52.064;113.478;2023-07-20T04:37:04;93536.03;;;29.32
70415;BMP280;57837;52.064;113.478;2023-07-20T04:40:07;93539.22;;;29.40
70415;BMP280;57837;52.064;113.478;2023-07-20T04:43:11;93535.81;;;29.50
70415;BMP280;57837;52.064;113.478;2023-07-20T04:46:14;93534.38;;;29.49
70415;BMP280;57837;52.064;113.478;2023-07-20T04:49:21;93529.41;;;29.33
70415;BMP280;57837;52.064;113.478;2023-07-20T04:52:25;93530.59;;;29.21
70415;BMP280;57837;52.064;113.478;2023-07-20T04:55:50;93528.75;;;29.23
70415;BMP280;57837;52.064;113.478;2023-07-20T04:58:55;93525.59;;;28.96
70415;BMP280;57837;52.064;113.478;2023-07-20T05:01:59;93526.94;;;28.47
70415;BMP280;57837;52.064;113.478;2023-07-20T05:05:03;93531.44;;;28.35
70415;BMP280;57837;52.064;113.478;2023-07-20T05:08:09;93526.94;;;28.47
70415;BMP280;57837;52.064;113.478;2023-07-20T05:11:13;93519.94;;;28.61
70415;BMP280;57837;52.064;113.478;2023-07-20T05:14:16;93516.41;;;28.68
70415;BMP280;57837;52.064;113.478;2023-07-20T05:17:21;93515.88;;;28.60
70415;BMP280;57837;52.064;113.478;2023-07-20T05:20:25;93522.19;;;28.55
70415;BMP280;57837;52.064;113.478;2023-07-20T05:23:29;93506.91;;;28.46
70415;BMP280;57837;52.064;113.478;2023-07-20T05:26:34;93516.16;;;28.55
70415;BMP280;57837;52.064;113.478;2023-07-20T05:29:37;93511.53;;;28.55
70415;BMP280;57837;52.064;113.478;2023-07-20T05:32:40;93510.41;;;28.58
70415;BMP280;57837;52.064;113.478;2023-07-20T05:35:44;93498.91;;;28.56
70415;BMP280;57837;52.064;113.478;2023-07-20T05:38:48;93500.03;;;28.53
70415;BMP280;57837;52.064;113.478;2023-07-20T05:41:52;93495.13;;;28.40
70415;BMP280;57837;52.064;113.478;2023-07-20T05:44:55;93487.84;;;28.31
70415;BMP280;57837;52.064;113.478;2023-07-20T05:47:59;93493.75;;;28.19
70415;BMP280;57837;52.064;113.478;2023-07-20T05:51:03;93493.88;;;28.21
70415;BMP280;57837;52.064;113.478;2023-07-20T05:54:07;93494.00;;;28.23
70415;BMP280;57837;52.064;113.478;2023-07-20T05:57:10;93486.72;;;28.14
70415;BMP280;57837;52.064;113.478;2023-07-20T06:00:15;93498.06;;;28.15
70415;BMP280;57837;52.064;113.478;2023-07-20T06:03:18;93498.38;;;28.19
70415;BMP280;57837;52.064;113.478;2023-07-20T06:06:24;93494.97;;;28.09
70415;BMP280;57837;52.064;113.478;2023-07-20T06:09:28;93499.34;;;27.95
70415;BMP280;57837;52.064;113.478;2023-07-20T06:12:33;93495.00;;;27.99
70415;BMP280;57837;52.064;113.478;2023-07-20T06:15:36;93501.41;;;27.87
70415;BMP280;57837;52.064;113.478;2023-07-20T06:18:40;93489.19;;;27.84
70415;BMP280;57837;52.064;113.478;2023-07-20T06:21:43;93498.59;;;27.85
70415;BMP280;57837;52.064;113.478;2023-07-20T06:24:50;93500.28;;;27.71
70415;BMP280;57837;52.064;113.478;2023-07-20T06:27:55;93494.47;;;27.45
70415;BMP280;57837;52.064;113.478;2023-07-20T06:31:00;93498.97;;;27.52
70415;BMP280;57837;52.064;113.478;2023-07-20T06:34:04;93494.09;;;27.68
70415;BMP280;57837;52.064;113.478;2023-07-20T06:37:08;93491.72;;;27.72
70415;BMP280;57837;52.064;113.478;2023-07-20T06:40:12;93492.44;;;27.73
70415;BMP280;57837;52.064;113.478;2023-07-20T06:43:19;93485.41;;;27.68
70415;BMP280;57837;52.064;113.478;2023-07-20T06:46:26;93492.56;;;27.75
70415;BMP280;57837;52.064;113.478;2023-07-20T06:49:30;93483.88;;;27.84
70415;BMP280;57837;52.064;113.478;2023-07-20T06:52:34;93478.41;;;27.82
70415;BMP280;57837;52.064;113.478;2023-07-20T06:55:42;93469.31;;;27.75
70415;BMP280;57837;52.064;113.478;2023-07-20T06:58:46;93480.91;;;27.60
70415;BMP280;57837;52.064;113.478;2023-07-20T07:01:50;93478.81;;;27.69
70415;BMP280;57837;52.064;113.478;2023-07-20T07:04:53;93478.72;;;27.76
70415;BMP280;57837;52.064;113.478;2023-07-20T07:08:19;93480.53;;;27.74
70415;BMP280;57837;52.064;113.478;2023-07-20T07:11:22;93478.34;;;27.43
70415;BMP280;57837;52.064;113.478;2023-07-20T07:14:27;93475.81;;;27.36
70415;BMP280;57837;52.064;113.478;2023-07-20T07:17:31;93474.41;;;27.35
70415;BMP280;57837;52.064;113.478;2023-07-20T07:20:37;93475.41;;;27.39
70415;BMP280;57837;52.064;113.478;2023-07-20T07:23:42;93468.00;;;27.47
70415;BMP280;57837;52.064;113.478;2023-07-20T07:26:47;93464.06;;;27.39
70415;BMP280;57837;52.064;113.478;2023-07-20T07:29:51;93462.50;;;27.36
70415;BMP280;57837;52.064;113.478;2023-07-20T07:32:55;93464.31;;;27.33
70415;BMP280;57837;52.064;113.478;2023-07-20T07:35:59;93468.69;;;27.38
70415;BMP280;57837;52.064;113.478;2023-07-20T07:39:04;93463.09;;;27.44
70415;BMP280;57837;52.064;113.478;2023-07-20T07:42:11;93456.03;;;27.29
70415;BMP280;57837;52.064;113.478;2023-07-20T07:45:16;93462.91;;;27.32
70415;BMP280;57837;52.064;113.478;2023-07-20T07:48:20;93464.59;;;27.37
70415;BMP280;57837;52.064;113.478;2023-07-20T07:51:25;93454.13;;;27.39
70415;BMP280;57837;52.064;113.478;2023-07-20T07:54:30;93459.63;;;27.51
70415;BMP280;57837;52.064;113.478;2023-07-20T07:57:34;93452.75;;;27.48
70415;BMP280;57837;52.064;113.478;2023-07-20T08:00:38;93456.94;;;27.41
70415;BMP280;57837;52.064;113.478;2023-07-20T08:03:45;93463.00;;;27.51
70415;BMP280;57837;52.064;113.478;2023-07-20T08:06:50;93462.56;;;27.55
70415;BMP280;57837;52.064;113.478;2023-07-20T08:09:54;93454.84;;;27.49
70415;BMP280;57837;52.064;113.478;2023-07-20T08:12:58;93450.91;;;27.41
70415;BMP280;57837;52.064;113.478;2023-07-20T08:16:02;93448.09;;;27.39
70415;BMP280;57837;52.064;113.478;2023-07-20T08:19:05;93456.19;;;27.31
70415;BMP280;57837;52.064;113.478;2023-07-20T08:22:08;93442.06;;;27.02
70415;BMP280;57837;52.064;113.478;2023-07-20T08:25:12;93455.91;;;26.91
70415;BMP280;57837;52.064;113.478;2023-07-20T08:28:16;93450.34;;;26.96
70415;BMP280;57837;52.064;113.478;2023-07-20T08:31:19;93445.28;;;27.00
70415;BMP280;57837;52.064;113.478;2023-07-20T08:34:24;93450.59;;;27.00
70415;BMP280;57837;52.064;113.478;2023-07-20T08:37:33;93443.00;;;26.87
70415;BMP280;57837;52.064;113.478;2023-07-20T08:40:41;93444.56;;;26.64
70415;BMP280;57837;52.064;113.478;2023-07-20T08:43:46;93439.41;;;26.66
70415;BMP280;57837;52.064;113.478;2023-07-20T08:46:50;93442.22;;;26.68
70415;BMP280;57837;52.064;113.478;2023-07-20T08:49:54;93431.75;;;26.70
70415;BMP280;57837;52.064;113.478;2023-07-20T08:52:59;93431.75;;;26.70
70415;BMP280;57837;52.064;113.478;2023-07-20T08:56:03;93439.72;;;26.70
70415;BMP280;57837;52.064;113.478;2023-07-20T08:59:08;93436.63;;;26.73
70415;BMP280;57837;52.064;113.478;2023-07-20T09:02:16;93437.50;;;26.76
70415;BMP280;57837;52.064;113.478;2023-07-20T09:05:24;93439.97;;;26.74
70415;BMP280;57837;52.064;113.478;2023-07-20T09:08:28;93432.44;;;26.70
70415;BMP280;57837;52.064;113.478;2023-07-20T09:11:31;93437.94;;;26.55
70415;BMP280;57837;52.064;113.478;2023-07-20T09:14:37;93440.13;;;26.49
70415;BMP280;57837;52.064;113.478;2023-07-20T09:17:49;93438.56;;;26.46
70415;BMP280;57837;52.064;113.478;2023-07-20T09:20:53;93439.13;;;26.44
70415;BMP280;57837;52.064;113.478;2023-07-20T09:23:57;93439.94;;;26.37
70415;BMP280;57837;52.064;113.478;2023-07-20T09:27:01;93441.72;;;26.35
70415;BMP280;57837;52.064;113.478;2023-07-20T09:30:08;93431.97;;;26.37
70415;BMP280;57837;52.064;113.478;2023-07-20T09:33:22;93441.19;;;26.36
70415;BMP280;57837;52.064;113.478;2023-07-20T09:36:29;93443.75;;;26.27
70415;BMP280;57837;52.064;113.478;2023-07-20T09:39:43;93442.91;;;26.24
70415;BMP280;57837;52.064;113.478;2023-07-20T09:42:52;93439.75;;;26.18
70415;BMP280;57837;52.064;113.478;2023-07-20T09:45:58;93446.91;;;26.16
70415;BMP280;57837;52.064;113.478;2023-07-20T09:49:02;93445.72;;;26.09
70415;BMP280;57837;52.064;113.478;2023-07-20T09:52:10;93455.63;;;26.09
70415;BMP280;57837;52.064;113.478;2023-07-20T09:55:14;93444.00;;;26.04
70415;BMP280;57837;52.064;113.478;2023-07-20T09:58:18;93450.72;;;26.05
70415;BMP280;57837;52.064;113.478;2023-07-20T10:01:22;93454.78;;;26.06
70415;BMP280;57837;52.064;113.478;2023-07-20T10:04:28;93452.44;;;26.10
70415;BMP280;57837;52.064;113.478;2023-07-20T10:07:33;93451.97;;;26.04
70415;BMP280;57837;52.064;113.478;2023-07-20T10:10:42;93447.59;;;25.99
70415;BMP280;57837;52.064;113.478;2023-07-20T10:13:51;93455.25;;;25.95
70415;BMP280;57837;52.064;113.478;2023-07-20T10:17:23;93447.38;;;25.87
70415;BMP280;57837;52.064;113.478;2023-07-20T10:20:29;93455.38;;;25.80
70415;BMP280;57837;52.064;113.478;2023-07-20T10:23:36;93456.63;;;25.79
70415;BMP280;57837;52.064;113.478;2023-07-20T10:26:42;93438.63;;;25.77
70415;BMP280;57837;52.064;113.478;2023-07-20T10:29:47;93450.13;;;25.72
70415;BMP280;57837;52.064;113.478;2023-07-20T10:32:52;93446.16;;;25.64
70415;BMP280;57837;52.064;113.478;2023-07-20T10:36:05;93447.78;;;25.59
70415;BMP280;57837;52.064;113.478;2023-07-20T10:39:22;93443.91;;;25.60
70415;BMP280;57837;52.064;113.478;2023-07-20T10:42:33;93444.75;;;25.63
70415;BMP280;57837;52.064;113.478;2023-07-20T10:45:42;93447.63;;;25.57
70415;BMP280;57837;52.064;113.478;2023-07-20T10:49:00;93439.91;;;25.52
70415;BMP280;57837;52.064;113.478;2023-07-20T10:52:05;93443.84;;;25.43
70415;BMP280;57837;52.064;113.478;2023-07-20T10:55:19;93450.59;;;25.37
70415;BMP280;57837;52.064;113.478;2023-07-20T10:58:25;93450.88;;;25.23
70415;BMP280;57837;52.064;113.478;2023-07-20T11:01:36;93444.38;;;25.17
70415;BMP280;57837;52.064;113.478;2023-07-20T11:04:42;93444.72;;;25.21
70415;BMP280;57837;52.064;113.478;2023-07-20T11:07:46;93440.50;;;25.18
70415;BMP280;57837;52.064;113.478;2023-07-20T11:11:26;93447.56;;;25.15
70415;BMP280;57837;52.064;113.478;2023-07-20T11:14:30;93440.94;;;25.07
70415;BMP280;57837;52.064;113.478;2023-07-20T11:17:37;93442.72;;;25.04
70415;BMP280;57837;52.064;113.478;2023-07-20T11:20:42;93448.69;;;25.05
70415;BMP280;57837;52.064;113.478;2023-07-20T11:23:47;93446.63;;;24.96
70415;BMP280;57837;52.064;113.478;2023-07-20T11:26:53;93441.22;;;24.86
70415;BMP280;57837;52.064;113.478;2023-07-20T11:29:57;93436.84;;;24.81
70415;BMP280;57837;52.064;113.478;2023-07-20T11:33:01;93440.41;;;24.76
70415;BMP280;57837;52.064;113.478;2023-07-20T11:36:05;93441.13;;;24.69
70415;BMP280;57837;52.064;113.478;2023-07-20T11:39:16;93453.31;;;24.64
70415;BMP280;57837;52.064;113.478;2023-07-20T11:42:20;93452.09;;;24.58
70415;BMP280;57837;52.064;113.478;2023-07-20T11:45:27;93452.50;;;24.54
70415;BMP280;57837;52.064;113.478;2023-07-20T11:48:36;93451.44;;;24.50
70415;BMP280;57837;52.064;113.478;2023-07-20T11:51:40;93464.88;;;24.44
70415;BMP280;57837;52.064;113.478;2023-07-20T11:54:45;93473.19;;;24.41
70415;BMP280;57837;52.064;113.478;2023-07-20T11:58:05;93470.69;;;24.35
70415;BMP280;57837;52.064;113.478;2023-07-20T12:01:09;93472.50;;;24.25
70415;BMP280;57837;52.064;113.478;2023-07-20T12:04:15;93470.94;;;24.14
70415;BMP280;57837;52.064;113.478;2023-07-20T12:07:19;93476.94;;;24.07
70415;BMP280;57837;52.064;113.478;2023-07-20T12:10:27;93480.28;;;24.00
70415;BMP280;57837;52.064;113.478;2023-07-20T12:13:37;93482.28;;;23.92
70415;BMP280;57837;52.064;113.478;2023-07-20T12:16:42;93478.56;;;23.80
70415;BMP280;57837;52.064;113.478;2023-07-20T12:19:45;93485.44;;;23.68
70415;BMP280;57837;52.064;113.478;2023-07-20T12:22:50;93486.84;;;23.54
70415;BMP280;57837;52.064;113.478;2023-07-20T12:25:56;93498.63;;;23.30
70415;BMP280;57837;52.064;113.478;2023-07-20T12:29:00;93494.31;;;23.04
70415;BMP280;57837;52.064;113.478;2023-07-20T12:32:05;93505.03;;;22.91
70415;BMP280;57837;52.064;113.478;2023-07-20T12:35:09;93505.63;;;22.69
70415;BMP280;57837;52.064;113.478;2023-07-20T12:38:15;93504.94;;;22.40
70415;BMP280;57837;52.064;113.478;2023-07-20T12:41:19;93508.50;;;22.22
70415;BMP280;57837;52.064;113.478;2023-07-20T12:44:23;93507.91;;;22.08
70415;BMP280;57837;52.064;113.478;2023-07-20T12:47:27;93510.41;;;21.93
70415;BMP280;57837;52.064;113.478;2023-07-20T12:50:31;93512.78;;;21.84
70415;BMP280;57837;52.064;113.478;2023-07-20T12:53:36;93508.19;;;21.77
70415;BMP280;57837;52.064;113.478;2023-07-20T12:56:39;93509.25;;;21.60
70415;BMP280;57837;52.064;113.478;2023-07-20T12:59:46;93521.56;;;21.45
70415;BMP280;57837;52.064;113.478;2023-07-20T13:02:51;93525.91;;;21.22
70415;BMP280;57837;52.064;113.478;2023-07-20T13:06:11;93532.88;;;21.19
70415;BMP280;57837;52.064;113.478;2023-07-20T13:09:18;93536.13;;;21.12
70415;BMP280;57837;52.064;113.478;2023-07-20T13:12:22;93538.66;;;21.04
70415;BMP280;57837;52.064;113.478;2023-07-20T13:15:30;93531.72;;;20.94
70415;BMP280;57837;52.064;113.478;2023-07-20T13:18:35;93531.72;;;20.94
70415;BMP280;57837;52.064;113.478;2023-07-20T13:21:39;93534.22;;;20.86
70415;BMP280;57837;52.064;113.478;2023-07-20T13:24:45;93531.91;;;20.83
70415;BMP280;57837;52.064;113.478;2023-07-20T13:27:52;93537.88;;;20.70
70415;BMP280;57837;52.064;113.478;2023-07-20T13:30:56;93537.69;;;20.68
70415;BMP280;57837;52.064;113.478;2023-07-20T13:34:00;93539.91;;;20.64
70415;BMP280;57837;52.064;113.478;2023-07-20T13:37:06;93539.22;;;20.64
70415;BMP280;57837;52.064;113.478;2023-07-20T13:40:09;93548.13;;;20.60
70415;BMP280;57837;52.064;113.478;2023-07-20T13:43:16;93550.53;;;20.58
70415;BMP280;57837;52.064;113.478;2023-07-20T13:46:20;93553.16;;;20.58
70415;BMP280;57837;52.064;113.478;2023-07-20T13:49:44;93551.22;;;20.46
70415;BMP280;57837;52.064;113.478;2023-07-20T13:52:50;93567.41;;;20.37
70415;BMP280;57837;52.064;113.478;2023-07-20T13:56:14;93566.53;;;20.16
70415;BMP280;57837;52.064;113.478;2023-07-20T13:59:21;93556.47;;;20.01
70415;BMP280;57837;52.064;113.478;2023-07-20T14:02:25;93566.28;;;20.00
70415;BMP280;57837;52.064;113.478;2023-07-20T14:05:31;93558.41;;;20.00
70415;BMP280;57837;52.064;113.478;2023-07-20T14:08:40;93564.75;;;19.73
70415;BMP280;57837;52.064;113.478;2023-07-20T14:11:45;93565.03;;;19.51
70415;BMP280;57837;52.064;113.478;2023-07-20T14:14:52;93571.56;;;19.44
70415;BMP280;57837;52.064;113.478;2023-07-20T14:17:56;93575.09;;;19.28
70415;BMP280;57837;52.064;113.478;2023-07-20T14:21:00;93585.50;;;19.15
70415;BMP280;57837;52.064;113.478;2023-07-20T14:24:06;93578.28;;;19.21
70415;BMP280;57837;52.064;113.478;2023-07-20T14:27:12;93589.31;;;19.38
70415;BMP280;57837;52.064;113.478;2023-07-20T14:30:15;93593.44;;;19.34
70415;BMP280;57837;52.064;113.478;2023-07-20T14:33:20;93594.97;;;19.24
70415;BMP280;57837;52.064;113.478;2023-07-20T14:36:24;93609.31;;;19.23
70415;BMP280;57837;52.064;113.478;2023-07-20T14:39:28;93608.59;;;19.22
70415;BMP280;57837;52.064;113.478;2023-07-20T14:42:32;93609.84;;;19.15
70415;BMP280;57837;52.064;113.478;2023-07-20T14:45:37;93612.03;;;19.11
70415;BMP280;57837;52.064;113.478;2023-07-20T14:48:43;93624.31;;;19.03
70415;BMP280;57837;52.064;113.478;2023-07-20T14:51:48;93616.00;;;18.99
70415;BMP280;57837;52.064;113.478;2023-07-20T14:54:52;93617.19;;;18.98
70415;BMP280;57837;52.064;113.478;2023-07-20T14:57:55;93625.09;;;18.93
70415;BMP280;57837;52.064;113.478;2023-07-20T15:00:59;93612.59;;;18.80
70415;BMP280;57837;52.064;113.478;2023-07-20T15:04:03;93620.47;;;18.80
70415;BMP280;57837;52.064;113.478;2023-07-20T15:07:08;93629.94;;;18.83
70415;BMP280;57837;52.064;113.478;2023-07-20T15:10:12;93620.25;;;18.78
70415;BMP280;57837;52.064;113.478;2023-07-20T15:13:16;93628.81;;;18.79
70415;BMP280;57837;52.064;113.478;2023-07-20T15:16:20;93636.00;;;18.78
70415;BMP280;57837;52.064;113.478;2023-07-20T15:19:24;93631.28;;;18.65
70415;BMP280;57837;52.064;113.478;2023-07-20T15:22:28;93636.69;;;18.49
70415;BMP280;57837;52.064;113.478;2023-07-20T16:40:53;93678.66;;;16.72
70415;BMP280;57837;52.064;113.478;2023-07-20T16:43:59;93665.13;;;16.63
70415;BMP280;57837;52.064;113.478;2023-07-20T16:47:06;93671.78;;;16.64
70415;BMP280;57837;52.064;113.478;2023-07-20T16:50:12;93660.34;;;16.61
70415;BMP280;57837;52.064;113.478;2023-07-20T16:53:16;93652.53;;;16.61
70415;BMP280;57837;52.064;113.478;2023-07-20T16:56:19;93659.41;;;16.53
70415;BMP280;57837;52.064;113.478;2023-07-20T16:59:24;93652.03;;;16.52
70415;BMP280;57837;52.064;113.478;2023-07-20T17:02:28;93659.63;;;16.50
70415;BMP280;57837;52.064;113.478;2023-07-20T17:05:32;93653.19;;;16.45
70415;BMP280;57837;52.064;113.478;2023-07-20T17:08:36;93656.50;;;16.40
70415;BMP280;57837;52.064;113.478;2023-07-20T17:11:40;93656.50;;;16.40
70415;BMP280;57837;52.064;113.478;2023-07-20T17:14:43;93666.25;;;16.45
70415;BMP280;57837;52.064;113.478;2023-07-20T17:17:47;93669.59;;;16.51
70415;BMP280;57837;52.064;113.478;2023-07-20T17:20:54;93679.56;;;16.36
70415;BMP280;57837;52.064;113.478;2023-07-20T17:23:58;93675.97;;;16.22
70415;BMP280;57837;52.064;113.478;2023-07-20T17:27:03;93683.03;;;16.11
70415;BMP280;57837;52.064;113.478;2023-07-20T17:30:10;93682.81;;;16.14
70415;BMP280;57837;52.064;113.478;2023-07-20T17:33:14;93674.75;;;16.23
70415;BMP280;57837;52.064;113.478;2023-07-20T17:36:19;93669.28;;;16.10
70415;BMP280;57837;52.064;113.478;2023-07-20T17:39:27;93678.03;;;15.96
70415;BMP280;57837;52.064;113.478;2023-07-20T17:42:33;93669.41;;;15.84
70415;BMP280;57837;52.064;113.478;2023-07-20T17:45:40;93668.84;;;15.64
70415;BMP280;57837;52.064;113.478;2023-07-20T17:48:44;93670.28;;;15.70
70415;BMP280;57837;52.064;113.478;2023-07-20T17:51:48;93678.31;;;15.61
70415;BMP280;57837;52.064;113.478;2023-07-20T17:54:52;93682.38;;;15.62
70415;BMP280;57837;52.064;113.478;2023-07-20T17:57:55;93676.97;;;15.77
70415;BMP280;57837;52.064;113.478;2023-07-20T18:01:00;93676.28;;;15.76
70415;BMP280;57837;52.064;113.478;2023-07-20T18:04:04;93685.44;;;15.61
70415;BMP280;57837;52.064;113.478;2023-07-20T18:07:11;93686.59;;;15.60
70415;BMP280;57837;52.064;113.478;2023-07-20T18:10:14;93690.16;;;15.57
70415;BMP280;57837;52.064;113.478;2023-07-20T18:13:19;93692.53;;;15.55
70415;BMP280;57837;52.064;113.478;2023-07-20T18:16:23;93690.34;;;15.48
70415;BMP280;57837;52.064;113.478;2023-07-20T18:19:27;93693.53;;;15.31
70415;BMP280;57837;52.064;113.478;2023-07-20T18:22:30;93697.44;;;15.10
70415;BMP280;57837;52.064;113.478;2023-07-20T18:25:34;93698.56;;;15.04
70415;BMP280;57837;52.064;113.478;2023-07-20T18:28:37;93700.44;;;15.03
70415;BMP280;57837;52.064;113.478;2023-07-20T18:31:41;93704.81;;;15.12
70415;BMP280;57837;52.064;113.478;2023-07-20T18:34:45;93720.63;;;15.08
70415;BMP280;57837;52.064;113.478;2023-07-20T18:37:48;93724.41;;;15.02
70415;BMP280;57837;52.064;113.478;2023-07-20T18:40:53;93740.59;;;14.85
70415;BMP280;57837;52.064;113.478;2023-07-20T18:43:56;93740.28;;;14.78
70415;BMP280;57837;52.064;113.478;2023-07-20T18:47:00;93734.56;;;14.74
70415;BMP280;57837;52.064;113.478;2023-07-20T18:50:05;93728.88;;;14.75